M I D A S
Marine Information and Data Acquisition System
Tripno 278 of the Zeeleeuw from 2002-05-17 07:00:00 to 2002-05-17 15:25:00
Back to CruiseResearch ActivitiesStationsMapUnderway DataData graphs

EquipmentUnitsComments
TimeDGPSUTC
LatitudeDGPSDM.mWGS84
LongitudeDGPSDM.mWGS84
SpeedMeteo Stationm/sRelative wind speed
DirectionMeteo StationdegRelative wind direction
TemperatureMeteo Stationdeg CelciusAir temperature
PressureMeteo StationPaAtmospheric pressure
HumidityMeteo Station%Relative humidity
Missing or incorrect values are displayed as -999
Metereological data collected by the RV Zeeleeuw from 2002-05-17 07:00:00 to 2002-05-17 15:25:00
Time Latitude Longitude Speed Direction Temperature Pressure Humidity
2002-05-17 07:01 51°13.719 2°55.771 1.8 171 17.1 101330 75
2002-05-17 07:02 51°13.792 2°55.665 1.2 192 17.1 101330 75
2002-05-17 07:03 51°13.887 2°55.584 2.8 192 17.1 101330 75
2002-05-17 07:04 51°13.983 2°55.511 2.5 151 17.1 101330 75
2002-05-17 07:05 51°14.083 2°55.439 2.8 154 17 101330 75
2002-05-17 07:06 51°14.182 2°55.362 4.2 172 17 101330 76
2002-05-17 07:07 51°14.268 2°55.255 2.8 129 17 101330 75
2002-05-17 07:08 51°14.337 2°55.118 2.4 131 17 101340 75
2002-05-17 07:09 51°14.414 2°54.956 3.9 165 17 101330 75
2002-05-17 07:10 51°14.542 2°54.722 3.8 178 16.9 101330 74
2002-05-17 07:11 51°14.705 2°54.545 5.9 189 16.7 101320 75
2002-05-17 07:12 51°14.882 2°54.385 4.8 182 16.5 101320 76
2002-05-17 07:13 51°15.055 2°54.228 5.9 183 16.4 101320 77
2002-05-17 07:14 51°15.231 2°54.065 6.5 196 16.1 101320 78
2002-05-17 07:15 51°15.413 2°53.893 7 191 15.7 101320 80
2002-05-17 07:16 51°15.593 2°53.719 6.7 188 15.5 101320 81
2002-05-17 07:17 51°15.781 2°53.534 7.5 192 15.3 101310 82
2002-05-17 07:18 51°15.968 2°53.355 7.3 191 15.1 101310 83
2002-05-17 07:19 51°16.155 2°53.166 6.7 191 14.9 101310 84
2002-05-17 07:20 51°16.345 2°52.978 7.7 200 14.8 101310 85
2002-05-17 07:21 51°16.551 2°52.832 9.1 200 14.6 101310 85
2002-05-17 07:22 51°16.761 2°52.703 8.7 197 14.4 101300 86
2002-05-17 07:23 51°16.97 2°52.604 10.4 199 14.3 101300 87
2002-05-17 07:24 51°17.195 2°52.527 10.8 203 14.2 101300 88
2002-05-17 07:25 51°17.414 2°52.493 10.2 203 14.1 101300 88
2002-05-17 07:26 51°17.637 2°52.453 11.5 201 14.1 101290 88
2002-05-17 07:27 51°17.85 2°52.469 12.5 211 14 101290 89
2002-05-17 07:28 51°18.051 2°52.598 12 221 14 101300 89
2002-05-17 07:29 51°18.182 2°52.857 13.2 228 14.1 101300 89
2002-05-17 07:30 51°18.283 2°53.143 13.4 231 14.2 101290 88
2002-05-17 07:31 51°18.376 2°53.446 13.2 233 14.3 101300 88
2002-05-17 07:32 51°18.471 2°53.742 12.9 233 14.3 101300 88
2002-05-17 07:33 51°18.569 2°54.034 12.8 231 14.3 101300 88
2002-05-17 07:34 51°18.666 2°54.319 13.7 230 14.3 101300 88
2002-05-17 07:35 51°18.769 2°54.613 13.2 230 14.3 101300 88
2002-05-17 07:36 51°18.87 2°54.902 13.9 233 14.4 101300 88
2002-05-17 07:37 51°18.972 2°55.19 13.9 233 14.4 101290 87
2002-05-17 07:38 51°19.076 2°55.481 13.4 232 14.4 101300 88
2002-05-17 07:39 51°19.172 2°55.779 12.8 233 14.4 101300 88
2002-05-17 07:40 51°19.258 2°56.081 13.8 232 14.3 101300 88
2002-05-17 07:41 51°19.344 2°56.382 14 235 14.3 101300 88
2002-05-17 07:42 51°19.43 2°56.682 12.9 236 14.3 101300 88
2002-05-17 07:43 51°19.506 2°56.988 12.7 233 14.4 101300 88
2002-05-17 07:44 51°19.581 2°57.295 14.4 236 14.4 101300 88
2002-05-17 07:45 51°19.655 2°57.593 13.2 236 14.4 101290 88
2002-05-17 07:46 51°19.73 2°57.899 14.5 237 14.4 101300 88
2002-05-17 07:47 51°19.808 2°58.202 14.1 236 14.4 101300 87
2002-05-17 07:48 51°19.881 2°58.494 14.1 239 14.4 101290 87
2002-05-17 07:49 51°19.955 2°58.787 13.7 238 14.4 101300 87
2002-05-17 07:50 51°20.03 2°59.079 14.4 237 14.4 101290 87
2002-05-17 07:51 51°20.104 2°59.372 13.6 235 14.4 101290 87
2002-05-17 07:52 51°20.183 2°59.688 14.1 236 14.4 101290 87
2002-05-17 07:53 51°20.258 2°59.987 13.9 235 14.4 101300 87
2002-05-17 07:54 51°20.332 3°0.281 13.9 236 14.4 101300 87
2002-05-17 07:55 51°20.408 3°0.574 14.1 234 14.4 101290 87
2002-05-17 07:56 51°20.48 3°0.868 13.3 235 14.4 101290 87
2002-05-17 07:57 51°20.554 3°1.161 13.1 234 14.4 101300 87
2002-05-17 07:58 51°20.629 3°1.454 14.2 232 14.5 101300 87
2002-05-17 07:59 51°20.698 3°1.744 13.6 233 14.5 101300 87
2002-05-17 08:00 51°20.772 3°2.037 12.9 234 14.5 101290 87
2002-05-17 08:01 51°20.846 3°2.334 13.8 232 14.5 101290 87
2002-05-17 08:02 51°20.918 3°2.622 14 236 14.5 101300 86
2002-05-17 08:03 51°20.989 3°2.919 13.4 234 14.5 101300 86
2002-05-17 08:04 51°21.059 3°3.206 14 233 14.6 101300 86
2002-05-17 08:05 51°21.138 3°3.5 14.4 233 14.6 101300 86
2002-05-17 08:06 51°21.218 3°3.787 13.6 234 14.6 101300 86
2002-05-17 08:07 51°21.296 3°4.077 14 233 14.6 101290 86
2002-05-17 08:08 51°21.374 3°4.365 13.1 234 14.6 101290 86
2002-05-17 08:09 51°21.45 3°4.649 13.6 234 14.6 101290 86
2002-05-17 08:10 51°21.53 3°4.935 13.6 234 14.6 101290 86
2002-05-17 08:11 51°21.609 3°5.225 14.7 234 14.7 101290 85
2002-05-17 08:12 51°21.688 3°5.51 14.5 234 14.7 101290 85
2002-05-17 08:13 51°21.77 3°5.798 14.4 233 14.8 101290 85
2002-05-17 08:14 51°21.844 3°6.072 13.8 235 14.8 101290 85
2002-05-17 08:15 51°21.922 3°6.353 14.7 235 14.8 101290 85
2002-05-17 08:16 51°22.003 3°6.64 14.5 234 14.8 101280 84
2002-05-17 08:17 51°22.082 3°6.92 14.5 235 14.8 101290 84
2002-05-17 08:18 51°22.151 3°7.214 14 233 14.9 101280 84
2002-05-17 08:19 51°22.215 3°7.514 14.7 233 14.9 101290 84
2002-05-17 08:20 51°22.277 3°7.806 14.4 232 15 101280 84
2002-05-17 08:21 51°22.338 3°8.091 14.8 232 15 101300 83
2002-05-17 08:22 51°22.402 3°8.385 14.5 232 15.1 101290 83
2002-05-17 08:23 51°22.462 3°8.667 14.1 231 15.1 101300 83
2002-05-17 08:24 51°22.528 3°8.956 13.5 233 15.1 101290 83
2002-05-17 08:25 51°22.577 3°9.192 10.7 232 15.1 101300 83
2002-05-17 08:26 51°22.606 3°9.327 9.7 231 15.1 101310 83
2002-05-17 08:27 51°22.628 3°9.394 8 225 15.1 101320 83
2002-05-17 08:28 51°22.653 3°9.414 8.4 202 15.1 101310 83
2002-05-17 08:29 51°22.683 3°9.379 6.2 171 15 101320 83
2002-05-17 08:30 51°22.699 3°9.333 6.7 205 15 101320 83
2002-05-17 08:31 51°22.721 3°9.321 7.8 220 15 101320 83
2002-05-17 08:32 51°22.735 3°9.31 7.4 225 15.1 101320 83
2002-05-17 08:33 51°22.742 3°9.306 7.7 238 15.2 101330 83
2002-05-17 08:34 51°22.747 3°9.304 7.2 229 15.2 101330 82
2002-05-17 08:35 51°22.758 3°9.3 7.1 223 15.2 101320 82
2002-05-17 08:36 51°22.772 3°9.295 7.5 228 15.3 101320 82
2002-05-17 08:37 51°22.781 3°9.293 7.6 238 15.3 101330 82
2002-05-17 08:38 51°22.781 3°9.294 8 251 15.3 101320 82
2002-05-17 08:39 51°22.77 3°9.294 7.9 255 15.4 101320 82
2002-05-17 08:40 51°22.761 3°9.292 7.6 240 15.5 101320 81
2002-05-17 08:41 51°22.759 3°9.289 7.4 244 15.5 101320 81
2002-05-17 08:42 51°22.752 3°9.29 7.8 249 15.5 101320 81
2002-05-17 08:43 51°22.744 3°9.291 8 244 15.5 101320 81
2002-05-17 08:44 51°22.745 3°9.29 7.6 234 15.6 101320 81
2002-05-17 08:45 51°22.749 3°9.289 7.9 239 15.6 101330 81
2002-05-17 08:46 51°22.753 3°9.291 7.9 235 15.6 101330 81
2002-05-17 08:47 51°22.764 3°9.286 7.1 216 15.5 101330 81
2002-05-17 08:48 51°22.786 3°9.266 6.9 203 15.4 101330 81
2002-05-17 08:49 51°22.808 3°9.243 6.6 217 15.4 101330 82
2002-05-17 08:50 51°22.816 3°9.254 8.5 260 15.4 101330 82
2002-05-17 08:51 51°22.765 3°9.318 9.6 264 15.4 101330 81
2002-05-17 08:52 51°22.711 3°9.423 10.8 257 15.6 101320 81
2002-05-17 08:53 51°22.695 3°9.505 9.1 233 15.6 101330 81
2002-05-17 08:54 51°22.706 3°9.526 7.6 222 15.7 101330 80
2002-05-17 08:55 51°22.718 3°9.523 7.2 222 15.7 101330 80
2002-05-17 08:56 51°22.727 3°9.51 7.3 228 15.7 101330 80
2002-05-17 08:57 51°22.73 3°9.495 7.1 239 15.7 101330 80
2002-05-17 08:58 51°22.728 3°9.476 7 244 15.7 101330 80
2002-05-17 08:59 51°22.721 3°9.453 7.1 254 15.7 101330 80
2002-05-17 09:00 51°22.708 3°9.431 6.5 271 15.8 101330 80
2002-05-17 09:01 51°22.686 3°9.412 7.2 283 15.8 101330 80
2002-05-17 09:02 51°22.655 3°9.392 7.1 286 15.9 101330 79
2002-05-17 09:03 51°22.62 3°9.375 6.9 286 15.9 101330 79
2002-05-17 09:04 51°22.584 3°9.361 6.7 286 15.9 101330 79
2002-05-17 09:05 51°22.549 3°9.349 6.9 286 15.9 101320 79
2002-05-17 09:06 51°22.512 3°9.335 6.7 285 15.9 101320 79
2002-05-17 09:07 51°22.473 3°9.32 7.4 292 15.9 101330 79
2002-05-17 09:08 51°22.404 3°9.307 5.2 318 15.9 101320 79
2002-05-17 09:09 51°22.344 3°9.117 4.7 135 15.9 101330 79
2002-05-17 09:10 51°22.45 3°8.999 6.5 184 15.8 101310 79
2002-05-17 09:11 51°22.595 3°8.922 7.4 186 15.7 101310 80
2002-05-17 09:12 51°22.743 3°8.829 7.2 188 15.6 101310 80
2002-05-17 09:13 51°22.89 3°8.739 6.8 186 15.5 101310 81
2002-05-17 09:14 51°23.043 3°8.652 8.1 196 15.4 101310 82
2002-05-17 09:15 51°23.164 3°8.631 5.9 184 15.3 101320 83
2002-05-17 09:16 51°23.238 3°8.591 6.4 173 15.3 101310 83
2002-05-17 09:17 51°23.292 3°8.539 6.8 169 15.3 101320 83
2002-05-17 09:18 51°23.336 3°8.487 7.1 168 15.3 101310 83
2002-05-17 09:19 51°23.377 3°8.434 6.1 162 15.3 101310 83
2002-05-17 09:20 51°23.463 3°8.327 6.4 180 15.3 101300 83
2002-05-17 09:21 51°23.644 3°8.164 8.7 195 15.3 101290 83
2002-05-17 09:22 51°23.844 3°7.984 9.3 194 15.2 101290 83
2002-05-17 09:23 51°24.054 3°7.801 8.3 195 15.1 101290 84
2002-05-17 09:24 51°24.243 3°7.66 7.2 180 15 101280 84
2002-05-17 09:25 51°24.422 3°7.518 6.9 181 15 101280 84
2002-05-17 09:26 51°24.602 3°7.381 6.9 183 14.9 101280 85
2002-05-17 09:27 51°24.782 3°7.247 6.8 190 14.9 101280 85
2002-05-17 09:28 51°24.961 3°7.117 7.4 196 14.8 101290 85
2002-05-17 09:29 51°25.137 3°6.988 6.2 190 14.7 101290 86
2002-05-17 09:30 51°25.314 3°6.859 6.2 189 14.6 101290 86
2002-05-17 09:31 51°25.488 3°6.729 7 200 14.5 101290 87
2002-05-17 09:32 51°25.66 3°6.6 6.6 191 14.5 101290 87
2002-05-17 09:33 51°25.833 3°6.468 6.5 195 14.4 101280 88
2002-05-17 09:34 51°26.016 3°6.427 8.7 211 14.4 101280 88
2002-05-17 09:35 51°26.175 3°6.543 9.6 220 14.4 101280 89
2002-05-17 09:36 51°26.32 3°6.709 9.4 219 14.5 101280 89
2002-05-17 09:37 51°26.47 3°6.876 10 220 14.5 101280 88
2002-05-17 09:38 51°26.61 3°7.048 9.4 221 14.6 101280 88
2002-05-17 09:39 51°26.753 3°7.231 9.4 225 14.6 101280 88
2002-05-17 09:40 51°26.891 3°7.407 9.7 224 14.5 101290 88
2002-05-17 09:41 51°27.033 3°7.593 10.5 315 14.5 101280 88
2002-05-17 09:42 51°27.172 3°7.775 10.4 225 14.5 101280 88
2002-05-17 09:43 51°27.309 3°7.955 10.9 226 14.5 101280 88
2002-05-17 09:44 51°27.449 3°8.136 9.9 227 14.5 101280 88
2002-05-17 09:45 51°27.591 3°8.323 10.9 229 14.6 101280 88
2002-05-17 09:46 51°27.731 3°8.506 11.3 228 14.6 101280 88
2002-05-17 09:47 51°27.869 3°8.686 11.1 227 14.7 101280 87
2002-05-17 09:48 51°27.951 3°8.799 7.1 240 14.7 101280 87
2002-05-17 09:49 51°27.949 3°8.824 6.3 270 14.7 101290 87
2002-05-17 09:50 51°27.942 3°8.851 6.6 256 14.8 101280 86
2002-05-17 09:51 51°27.94 3°8.869 6.6 249 14.8 101280 86
2002-05-17 09:52 51°27.939 3°8.884 7.1 242 14.9 101280 86
2002-05-17 09:53 51°27.939 3°8.897 6.6 240 14.9 101280 86
2002-05-17 09:54 51°27.941 3°8.909 5.9 236 14.9 101280 86
2002-05-17 09:55 51°27.944 3°8.919 6.7 229 14.8 101270 86
2002-05-17 09:56 51°27.948 3°8.926 7.6 231 14.8 101270 86
2002-05-17 09:57 51°27.954 3°8.932 7.5 227 14.8 101260 86
2002-05-17 09:58 51°27.961 3°8.935 7.2 224 14.8 101270 86
2002-05-17 09:59 51°27.969 3°8.935 6.9 222 14.8 101270 86
2002-05-17 10:00 51°27.976 3°8.936 7.1 223 14.8 101270 86
2002-05-17 10:01 51°27.981 3°8.94 7.1 236 14.8 101260 86
2002-05-17 10:02 51°27.98 3°8.949 7.6 245 14.7 101260 87
2002-05-17 10:03 51°27.975 3°8.963 6.8 257 14.7 101260 87
2002-05-17 10:04 51°27.962 3°8.98 7.3 260 14.8 101260 87
2002-05-17 10:05 51°27.949 3°8.993 6.9 249 14.8 101260 86
2002-05-17 10:06 51°27.94 3°8.999 7.2 233 14.8 101260 86
2002-05-17 10:07 51°27.939 3°8.999 6.9 220 14.8 101260 86
2002-05-17 10:08 51°27.947 3°8.995 7 213 14.8 101250 86
2002-05-17 10:09 51°27.959 3°8.99 7.5 216 14.7 101260 87
2002-05-17 10:10 51°27.97 3°8.989 6.5 219 14.7 101260 87
2002-05-17 10:11 51°27.98 3°8.992 7.1 225 14.7 101260 87
2002-05-17 10:12 51°27.99 3°8.999 7.6 225 14.7 101260 87
2002-05-17 10:13 51°27.996 3°9.009 6.8 230 14.7 101260 87
2002-05-17 10:14 51°27.996 3°9.024 8 239 14.7 101260 87
2002-05-17 10:15 51°27.995 3°9.041 6.9 230 14.7 101260 87
2002-05-17 10:16 51°27.998 3°9.052 6.9 231 14.7 101260 87
2002-05-17 10:17 51°27.998 3°9.061 7.2 234 14.7 101260 87
2002-05-17 10:18 51°27.997 3°9.07 6.5 225 14.7 101260 87
2002-05-17 10:19 51°28.001 3°9.063 6.7 191 14.7 101250 87
2002-05-17 10:20 51°28.005 3°9.03 5.7 148 14.6 101260 87
2002-05-17 10:21 51°28.008 3°8.965 5.3 133 14.6 101260 88
2002-05-17 10:22 51°28.021 3°8.822 4.4 137 14.6 101260 88
2002-05-17 10:23 51°28.034 3°8.564 4.8 165 14.6 101260 88
2002-05-17 10:24 51°28.058 3°8.237 6.6 166 14.5 101250 88
2002-05-17 10:25 51°28.091 3°7.908 6.7 170 14.4 101250 88
2002-05-17 10:26 51°28.126 3°7.568 6.9 175 14.4 101250 88
2002-05-17 10:27 51°28.166 3°7.194 5.7 177 14.3 101250 88
2002-05-17 10:28 51°28.204 3°6.816 5.3 176 14.3 101240 88
2002-05-17 10:29 51°28.243 3°6.438 6.2 181 14.2 101250 88
2002-05-17 10:30 51°28.283 3°6.06 7.2 172 14.1 101250 88
2002-05-17 10:31 51°28.33 3°5.685 7 175 14.1 101240 89
2002-05-17 10:32 51°28.381 3°5.309 7.1 177 14.1 101240 89
2002-05-17 10:33 51°28.433 3°4.931 6.8 176 14.1 101240 89
2002-05-17 10:34 51°28.485 3°4.55 6.9 175 14 101230 89
2002-05-17 10:35 51°28.518 3°4.171 4.7 147 14 101230 89
2002-05-17 10:36 51°28.554 3°3.87 7.4 176 14 101230 89
2002-05-17 10:37 51°28.62 3°3.739 7.5 178 14 101230 89
2002-05-17 10:38 51°28.661 3°3.69 8.7 198 14 101230 89
2002-05-17 10:39 51°28.68 3°3.663 7.7 216 14 101230 88
2002-05-17 10:40 51°28.689 3°3.648 7.8 225 14.1 101230 88
2002-05-17 10:41 51°28.694 3°3.637 8.9 230 14.2 101230 88
2002-05-17 10:42 51°28.697 3°3.631 8.6 239 14.3 101230 87
2002-05-17 10:43 51°28.691 3°3.635 8.9 261 14.4 101230 87
2002-05-17 10:44 51°28.675 3°3.648 7.9 269 14.4 101230 87
2002-05-17 10:45 51°28.657 3°3.663 8.7 261 14.4 101230 87
2002-05-17 10:46 51°28.645 3°3.677 7.6 249 14.4 101240 87
2002-05-17 10:47 51°28.638 3°3.686 7.5 243 14.4 101240 86
2002-05-17 10:48 51°28.636 3°3.697 8.2 239 14.4 101230 86
2002-05-17 10:49 51°28.641 3°3.715 8.7 244 14.4 101230 86
2002-05-17 10:50 51°28.648 3°3.739 9.3 237 14.4 101240 86
2002-05-17 10:51 51°28.655 3°3.769 8.7 240 14.4 101230 86
2002-05-17 10:52 51°28.659 3°3.802 8.9 241 14.4 101230 86
2002-05-17 10:53 51°28.66 3°3.83 7.9 242 14.4 101230 86
2002-05-17 10:54 51°28.662 3°3.835 7.7 219 14.4 101240 86
2002-05-17 10:55 51°28.665 3°3.813 6.4 187 14.4 101230 86
2002-05-17 10:56 51°28.668 3°3.77 8.1 168 14.3 101240 86
2002-05-17 10:57 51°28.671 3°3.722 6.8 189 14.2 101240 87
2002-05-17 10:58 51°28.677 3°3.685 7 212 14.1 101240 87
2002-05-17 10:59 51°28.682 3°3.659 7.3 212 14.1 101240 87
2002-05-17 11:00 51°28.684 3°3.633 7.1 213 14.2 101240 87
2002-05-17 11:01 51°28.686 3°3.61 7.1 225 14.2 101240 86
2002-05-17 11:02 51°28.688 3°3.601 7.7 240 14.3 101240 86
2002-05-17 11:03 51°28.684 3°3.611 8 250 14.4 101240 86
2002-05-17 11:04 51°28.672 3°3.626 8.2 259 14.4 101230 85
2002-05-17 11:05 51°28.662 3°3.65 8 256 14.5 101230 85
2002-05-17 11:06 51°28.649 3°3.671 8.8 258 14.5 101230 85
2002-05-17 11:07 51°28.643 3°3.69 8.8 247 14.5 101230 85
2002-05-17 11:08 51°28.634 3°3.709 8.7 277 14.5 101230 85
2002-05-17 11:09 51°28.603 3°3.724 7 306 14.5 101240 84
2002-05-17 11:10 51°28.54 3°3.723 5.2 2 14.5 101240 85
2002-05-17 11:11 51°28.405 3°3.583 1.4 3 14.4 101250 85
2002-05-17 11:12 51°28.22 3°3.332 0.5 343 14.5 101250 85
2002-05-17 11:13 51°28.053 3°3.022 1.1 200 14.6 101250 85
2002-05-17 11:14 51°27.89 3°2.705 1.3 195 14.6 101250 85
2002-05-17 11:15 51°27.727 3°2.389 0.9 219 14.7 101260 84
2002-05-17 11:16 51°27.564 3°2.072 0.8 219 14.7 101250 84
2002-05-17 11:17 51°27.393 3°1.762 0.4 161 14.8 101250 84
2002-05-17 11:18 51°27.22 3°1.451 0.1 62 15 101240 84
2002-05-17 11:19 51°27.041 3°1.148 0.3 298 15.1 101230 84
2002-05-17 11:20 51°26.859 3°0.846 0.1 34 15.3 101230 83
2002-05-17 11:21 51°26.677 3°0.544 0.8 67 15.4 101230 82
2002-05-17 11:22 51°26.494 3°0.241 0.8 125 15.5 101220 81
2002-05-17 11:23 51°26.311 2°59.943 0.1 320 15.5 101220 80
2002-05-17 11:24 51°26.128 2°59.647 0.8 40 15.5 101220 80
2002-05-17 11:25 51°25.946 2°59.351 1 98 15.6 101210 80
2002-05-17 11:26 51°25.772 2°59.04 1.4 101 15.6 101210 80
2002-05-17 11:27 51°25.611 2°58.712 2.1 96 15.5 101210 80
2002-05-17 11:28 51°25.453 2°58.383 1 106 15.3 101200 80
2002-05-17 11:29 51°25.295 2°58.054 1.3 110 15.2 101200 81
2002-05-17 11:30 51°25.135 2°57.726 1.3 121 15.1 101200 82
2002-05-17 11:31 51°24.976 2°57.397 1.1 87 15 101200 82
2002-05-17 11:32 51°24.819 2°57.066 1.4 87 14.9 101190 83
2002-05-17 11:33 51°24.662 2°56.737 1.7 94 14.8 101190 83
2002-05-17 11:34 51°24.502 2°56.409 1.3 99 14.8 101180 83
2002-05-17 11:35 51°24.346 2°56.079 1.3 77 14.8 101180 84
2002-05-17 11:36 51°24.197 2°55.743 3.3 123 14.8 101180 84
2002-05-17 11:37 51°24.115 2°55.356 4.5 150 14.7 101180 84
2002-05-17 11:38 51°24.04 2°54.964 3.7 124 14.6 101180 84
2002-05-17 11:39 51°23.94 2°54.584 2.8 102 14.5 101180 85
2002-05-17 11:40 51°23.789 2°54.253 0.7 184 14.5 101190 85
2002-05-17 11:41 51°23.615 2°53.95 0.5 347 14.6 101180 86
2002-05-17 11:42 51°23.439 2°53.644 0.2 76 14.8 101180 85
2002-05-17 11:43 51°23.266 2°53.342 0.7 62 15 101180 84
2002-05-17 11:44 51°23.093 2°53.037 1.8 70 15.2 101180 83
2002-05-17 11:45 51°22.921 2°52.729 1.1 90 15.2 101180 82
2002-05-17 11:46 51°22.751 2°52.421 2.3 33 15.3 101170 81
2002-05-17 11:47 51°22.579 2°52.116 1.6 84 15.3 101180 81
2002-05-17 11:48 51°22.408 2°51.804 2.1 64 15.3 101180 81
2002-05-17 11:49 51°22.238 2°51.492 1.7 62 15.3 101170 80
2002-05-17 11:50 51°22.066 2°51.185 1.6 73 15.3 101170 81
2002-05-17 11:51 51°21.896 2°50.873 2.2 64 15.4 101160 80
2002-05-17 11:52 51°21.73 2°50.558 1.7 82 15.3 101150 80
2002-05-17 11:53 51°21.57 2°50.235 2.6 52 15.2 101150 81
2002-05-17 11:54 51°21.393 2°49.94 3.6 322 15.1 101140 82
2002-05-17 11:55 51°21.203 2°49.667 1.7 24 15.1 101140 82
2002-05-17 11:56 51°21.014 2°49.395 3.7 29 15.1 101140 82
2002-05-17 11:57 51°20.825 2°49.121 2 28 15.1 101130 82
2002-05-17 11:58 51°20.636 2°48.845 2.6 27 15.1 101140 82
2002-05-17 11:59 51°20.448 2°48.565 2 25 15 101140 82
2002-05-17 12:00 51°20.259 2°48.287 2.2 349 15 101130 82
2002-05-17 12:01 51°20.07 2°48.008 0.7 41 15 101130 82
2002-05-17 12:02 51°19.895 2°47.747 3.2 38 15 101130 83
2002-05-17 12:03 51°19.772 2°47.681 11.4 279 14.9 101110 83
2002-05-17 12:04 51°19.794 2°47.767 12.1 208 15 101100 83
2002-05-17 12:05 51°19.858 2°47.705 8.9 196 14.8 101090 83
2002-05-17 12:06 51°19.876 2°47.698 12.3 247 14.7 101110 84
2002-05-17 12:07 51°19.885 2°47.728 11.2 249 14.7 101110 84
2002-05-17 12:08 51°19.878 2°47.734 11.3 252 14.8 101110 83
2002-05-17 12:09 51°19.863 2°47.733 11 267 14.8 101100 83
2002-05-17 12:10 51°19.845 2°47.729 9.5 262 14.8 101110 83
2002-05-17 12:11 51°19.829 2°47.735 10.6 256 14.8 101100 83
2002-05-17 12:12 51°19.821 2°47.75 10.3 248 14.8 101100 83
2002-05-17 12:13 51°19.824 2°47.761 10.5 224 14.9 101100 83
2002-05-17 12:14 51°19.842 2°47.751 10.4 220 14.9 101100 83
2002-05-17 12:15 51°19.858 2°47.741 11.1 228 14.9 101100 83
2002-05-17 12:16 51°19.862 2°47.724 9.7 233 14.9 101090 83
2002-05-17 12:17 51°19.861 2°47.703 10.3 243 14.8 101090 83
2002-05-17 12:18 51°19.852 2°47.688 11.9 255 14.8 101080 83
2002-05-17 12:19 51°19.852 2°47.71 12.8 234 14.8 101080 83
2002-05-17 12:20 51°19.912 2°47.77 12 228 14.8 101060 82
2002-05-17 12:21 51°19.932 2°47.777 10.2 244 14.8 101080 83
2002-05-17 12:22 51°19.932 2°47.77 11.1 242 14.7 101070 82
2002-05-17 12:23 51°19.933 2°47.758 12.1 233 14.8 101080 82
2002-05-17 12:24 51°19.936 2°47.75 11.5 245 14.8 101080 82
2002-05-17 12:25 51°19.931 2°47.742 10.2 248 14.8 101080 83
2002-05-17 12:26 51°19.925 2°47.729 10 239 14.8 101080 83
2002-05-17 12:27 51°19.923 2°47.716 10.8 239 14.8 101080 82
2002-05-17 12:28 51°19.923 2°47.707 10.9 243 14.8 101090 83
2002-05-17 12:29 51°19.919 2°47.705 11.7 254 14.8 101080 83
2002-05-17 12:30 51°19.907 2°47.706 12.2 254 14.8 101080 82
2002-05-17 12:31 51°19.896 2°47.703 10.7 259 14.8 101080 82
2002-05-17 12:32 51°19.877 2°47.708 11.7 294 14.8 101080 82
2002-05-17 12:33 51°19.835 2°47.707 2.7 334 14.8 101090 82
2002-05-17 12:34 51°19.779 2°47.682 6.1 342 14.7 101090 83
2002-05-17 12:35 51°19.73 2°47.641 6.3 351 14.6 101100 83
2002-05-17 12:36 51°19.684 2°47.597 8.1 356 14.6 101090 83
2002-05-17 12:37 51°19.638 2°47.547 8.5 14 14.5 101090 83
2002-05-17 12:38 51°19.594 2°47.49 9.6 29 14.5 101090 83
2002-05-17 12:39 51°19.563 2°47.324 7.2 126 14.6 101090 83
2002-05-17 12:40 51°19.471 2°47.069 3.3 78 14.6 101100 83
2002-05-17 12:41 51°19.325 2°46.749 3.6 98 14.7 101100 83
2002-05-17 12:42 51°19.176 2°46.424 3.8 118 14.7 101100 83
2002-05-17 12:43 51°19.036 2°46.099 0.4 37 14.7 101090 83
2002-05-17 12:44 51°18.88 2°45.783 2.7 119 14.8 101090 83
2002-05-17 12:45 51°18.75 2°45.435 3.9 102 14.8 101090 82
2002-05-17 12:46 51°18.617 2°45.09 3.8 94 14.8 101090 82
2002-05-17 12:47 51°18.487 2°44.744 3.4 87 14.8 101090 82
2002-05-17 12:48 51°18.357 2°44.406 3.3 85 14.7 101090 82
2002-05-17 12:49 51°18.232 2°44.069 3 101 14.7 101080 82
2002-05-17 12:50 51°18.111 2°43.738 3.4 86 14.6 101080 82
2002-05-17 12:51 51°17.989 2°43.409 3.4 80 14.6 101080 82
2002-05-17 12:52 51°17.868 2°43.076 4.3 102 14.6 101070 82
2002-05-17 12:53 51°17.749 2°42.742 3 93 14.6 101070 83
2002-05-17 12:54 51°17.629 2°42.406 3.8 96 14.5 101060 83
2002-05-17 12:55 51°17.508 2°42.07 2.7 97 14.6 101070 83
2002-05-17 12:56 51°17.388 2°41.734 3.7 115 14.6 101060 83
2002-05-17 12:57 51°17.271 2°41.407 6.6 81 14.5 101050 83
2002-05-17 12:58 51°17.223 2°41.227 8.5 109 14.5 101050 83
2002-05-17 12:59 51°17.208 2°41.175 11.2 119 14.5 101030 83
2002-05-17 13:00 51°17.264 2°41.128 14.5 232 14.4 101020 83
2002-05-17 13:01 51°17.304 2°41.185 12.1 268 14.5 101010 83
2002-05-17 13:02 51°17.289 2°41.208 13.2 274 14.5 101010 83
2002-05-17 13:03 51°17.274 2°41.221 12.4 257 14.5 101010 83
2002-05-17 13:04 51°17.265 2°41.224 12.1 260 14.5 101000 83
2002-05-17 13:05 51°17.248 2°41.229 11.2 243 14.5 101010 83
2002-05-17 13:06 51°17.248 2°41.219 11.8 229 14.5 101020 83
2002-05-17 13:07 51°17.245 2°41.207 11.8 216 14.6 101010 82
2002-05-17 13:08 51°17.246 2°41.187 10.8 212 14.6 101010 82
2002-05-17 13:09 51°17.249 2°41.168 9.8 223 14.5 101010 82
2002-05-17 13:10 51°17.249 2°41.153 10.6 242 14.5 101020 82
2002-05-17 13:11 51°17.248 2°41.148 10.6 252 14.5 101020 82
2002-05-17 13:12 51°17.244 2°41.147 11.9 241 14.6 101020 82
2002-05-17 13:13 51°17.239 2°41.146 11 228 14.5 101020 82
2002-05-17 13:14 51°17.24 2°41.138 11.1 202 14.5 101010 82
2002-05-17 13:15 51°17.244 2°41.104 11.4 154 14.4 101000 82
2002-05-17 13:16 51°17.248 2°41.06 11.2 161 14.3 101010 83
2002-05-17 13:17 51°17.249 2°41.022 11.1 156 14.3 101010 83
2002-05-17 13:18 51°17.243 2°40.984 10.6 161 14.2 101010 83
2002-05-17 13:19 51°17.237 2°40.946 10.8 148 14.2 101010 83
2002-05-17 13:20 51°17.227 2°40.91 10.4 140 14.3 101020 83
2002-05-17 13:21 51°17.215 2°40.874 9.6 130 14.3 101010 83
2002-05-17 13:22 51°17.203 2°40.839 8.8 131 14.3 101000 83
2002-05-17 13:23 51°17.195 2°40.8 10.7 161 14.3 101000 82
2002-05-17 13:24 51°17.219 2°40.758 10.8 191 14.3 101000 82
2002-05-17 13:25 51°17.247 2°40.747 13.1 208 14.2 100960 82
2002-05-17 13:26 51°17.265 2°40.74 11.9 216 14.2 100970 82
2002-05-17 13:27 51°17.28 2°40.731 11 209 14.3 100960 82
2002-05-17 13:28 51°17.294 2°40.723 11.9 212 14.3 100970 81
2002-05-17 13:29 51°17.306 2°40.714 12.7 216 14.4 100970 81
2002-05-17 13:30 51°17.318 2°40.706 10.9 220 14.4 100970 81
2002-05-17 13:31 51°17.323 2°40.775 11.3 302 14.4 100970 81
2002-05-17 13:32 51°17.23 2°40.749 6.9 16 14.4 101000 81
2002-05-17 13:33 51°17.042 2°40.657 2 327 14.4 101000 81
2002-05-17 13:34 51°16.817 2°40.598 1.7 323 14.4 101000 81
2002-05-17 13:35 51°16.591 2°40.549 2.4 322 14.4 101000 81
2002-05-17 13:36 51°16.366 2°40.501 2.3 326 14.4 100990 81
2002-05-17 13:37 51°16.139 2°40.472 4.1 343 14.4 100990 81
2002-05-17 13:38 51°15.91 2°40.456 3.3 302 14.5 100990 80
2002-05-17 13:39 51°15.681 2°40.44 2.9 303 14.5 101000 81
2002-05-17 13:40 51°15.45 2°40.452 8 315 14.5 101000 81
2002-05-17 13:41 51°15.227 2°40.541 9.6 303 14.5 100990 80
2002-05-17 13:42 51°15.006 2°40.649 9.5 303 14.5 100990 80
2002-05-17 13:43 51°14.783 2°40.759 7.8 304 14.5 100990 80
2002-05-17 13:44 51°14.56 2°40.877 10.2 305 14.5 100990 81
2002-05-17 13:45 51°14.346 2°41.003 9 307 14.5 100980 81
2002-05-17 13:46 51°14.214 2°41.107 12.3 289 14.5 100980 81
2002-05-17 13:47 51°14.185 2°41.172 9.1 303 14.5 100990 81
2002-05-17 13:48 51°14.176 2°41.166 2.2 330 14.5 101000 81
2002-05-17 13:49 51°14.168 2°41.167 5.4 345 14.5 101010 81
2002-05-17 13:50 51°14.156 2°41.171 6.2 348 14.4 101000 81
2002-05-17 13:51 51°14.143 2°41.178 4.6 339 14.4 101000 81
2002-05-17 13:52 51°14.131 2°41.188 3.7 339 14.4 101010 81
2002-05-17 13:53 51°14.118 2°41.198 2.8 332 14.5 101010 81
2002-05-17 13:54 51°14.106 2°41.21 4.1 347 14.5 101010 81
2002-05-17 13:55 51°14.093 2°41.223 4.1 309 14.5 101000 81
2002-05-17 13:56 51°14.082 2°41.236 5.6 316 14.5 101000 81
2002-05-17 13:57 51°14.07 2°41.252 4.6 284 14.5 101000 81
2002-05-17 13:58 51°14.058 2°41.268 6.9 290 14.5 101000 81
2002-05-17 13:59 51°14.046 2°41.282 3.9 326 14.5 101000 81
2002-05-17 14:00 51°14.035 2°41.295 5 294 14.5 101000 81
2002-05-17 14:01 51°14.024 2°41.309 4.1 310 14.4 100990 81
2002-05-17 14:02 51°14.014 2°41.323 4.8 310 14.4 100990 81
2002-05-17 14:03 51°14.004 2°41.338 4.5 329 14.4 100990 81
2002-05-17 14:04 51°13.994 2°41.355 7 315 14.4 100980 81
2002-05-17 14:05 51°13.983 2°41.374 5.5 317 14.4 100990 81
2002-05-17 14:06 51°13.971 2°41.398 4.1 319 14.4 100970 81
2002-05-17 14:07 51°13.954 2°41.432 6.9 316 14.4 100980 81
2002-05-17 14:08 51°13.935 2°41.472 3.8 319 14.4 100980 81
2002-05-17 14:09 51°13.906 2°41.507 6.9 347 14.4 100980 81
2002-05-17 14:10 51°13.874 2°41.519 8.8 19 14.4 100990 81
2002-05-17 14:11 51°13.844 2°41.511 7 132 14.4 101000 81
2002-05-17 14:12 51°13.825 2°41.485 7.4 90 14.5 101000 81
2002-05-17 14:13 51°13.821 2°41.452 8.1 102 14.5 101000 81
2002-05-17 14:14 51°13.826 2°41.42 8.8 127 14.5 101000 81
2002-05-17 14:15 51°13.893 2°41.393 13.3 225 14.5 100990 80
2002-05-17 14:16 51°14.007 2°41.599 16.3 243 14.5 100970 80
2002-05-17 14:17 51°14.078 2°41.955 16.4 254 14.6 100960 80
2002-05-17 14:18 51°14.126 2°42.315 17 254 14.6 100970 80
2002-05-17 14:19 51°14.176 2°42.679 17.4 255 14.7 100970 80
2002-05-17 14:20 51°14.228 2°43.041 17.4 247 14.7 100970 80
2002-05-17 14:21 51°14.28 2°43.403 15.2 250 14.7 100970 80
2002-05-17 14:22 51°14.339 2°43.761 16 252 14.8 100970 80
2002-05-17 14:23 51°14.398 2°44.121 15.8 251 14.8 100970 80
2002-05-17 14:24 51°14.451 2°44.491 16.6 252 14.8 100970 80
2002-05-17 14:25 51°14.502 2°44.851 17 254 14.8 100960 79
2002-05-17 14:26 51°14.552 2°45.218 16.3 252 14.8 100960 80
2002-05-17 14:27 51°14.605 2°45.591 17.6 252 14.8 100970 80
2002-05-17 14:28 51°14.658 2°45.961 16.7 253 14.8 100960 80
2002-05-17 14:29 51°14.702 2°46.329 17 255 14.8 100960 80
2002-05-17 14:30 51°14.748 2°46.703 16.5 254 14.8 100950 80
2002-05-17 14:31 51°14.795 2°47.067 17.1 257 14.8 100950 80
2002-05-17 14:32 51°14.845 2°47.439 17 256 14.8 100950 80
2002-05-17 14:33 51°14.897 2°47.811 18.6 256 14.8 100940 80
2002-05-17 14:34 51°14.946 2°48.185 16.8 254 14.8 100940 80
2002-05-17 14:35 51°14.996 2°48.554 17.7 254 14.8 100940 80
2002-05-17 14:36 51°15.045 2°48.924 17.5 256 14.8 100930 80
2002-05-17 14:37 51°15.087 2°49.28 17.1 258 14.9 100940 80
2002-05-17 14:38 51°15.131 2°49.643 17.8 255 14.9 100930 80
2002-05-17 14:39 51°15.174 2°50.005 16.7 259 14.9 100940 80
2002-05-17 14:40 51°15.217 2°50.367 16.8 257 15 100930 80
2002-05-17 14:41 51°15.255 2°50.73 16.5 259 15 100930 80
2002-05-17 14:42 51°15.292 2°51.094 16.5 259 15 100930 79
2002-05-17 14:43 51°15.303 2°51.46 16.4 266 15.1 100920 79
2002-05-17 14:44 51°15.26 2°51.816 15.1 278 15.1 100920 79
2002-05-17 14:45 51°15.141 2°52.123 13.4 287 15.1 100920 79
2002-05-17 14:46 51°15.024 2°52.435 13 280 15.2 100930 79
2002-05-17 14:47 51°14.928 2°52.77 14.7 278 15.2 100930 79
2002-05-17 14:48 51°14.839 2°53.119 14.9 277 15.2 100920 79
2002-05-17 14:49 51°14.751 2°53.463 13.7 274 15.3 100940 79
2002-05-17 14:50 51°14.674 2°53.812 14.3 270 15.3 100940 79
2002-05-17 14:51 51°14.621 2°54.148 14.3 272 15.3 100940 78
2002-05-17 14:52 51°14.557 2°54.456 13.3 278 15.4 100930 79
2002-05-17 14:53 51°14.474 2°54.753 13.4 279 15.4 100940 79
2002-05-17 14:54 51°14.372 2°55.038 11.9 287 15.4 100940 79
2002-05-17 14:55 51°14.257 2°55.249 9.7 288 15.4 100960 79
2002-05-17 14:56 51°14.16 2°55.378 6.6 301 15.5 100970 79
2002-05-17 14:57 51°14.072 2°55.446 2.6 325 15.6 100970 79
2002-05-17 14:58 51°13.989 2°55.506 2.2 334 15.7 100970 78
2002-05-17 14:59 51°13.898 2°55.566 3.9 319 15.8 100970 78
2002-05-17 15:00 51°13.802 2°55.633 6.6 304 16 100970 76
2002-05-17 15:01 51°13.727 2°55.723 5 295 16.2 100970 74
2002-05-17 15:02 51°13.67 2°55.833 8.5 290 16.5 100960 72
2002-05-17 15:03 51°13.621 2°55.948 5.5 276 16.8 100940 71
2002-05-17 15:04 51°13.578 2°56.047 5.5 282 17.2 100940 70
2002-05-17 15:05 51°13.545 2°56.127 4.6 293 17.4 100940 69
2002-05-17 15:06 51°13.532 2°56.213 10.2 254 17.7 100930 67
2002-05-17 15:07 51°13.559 2°56.259 6 222 17.9 100920 66
2002-05-17 15:08 51°13.543 2°56.251 5 204 18 100930 66
2002-05-17 15:09 51°13.525 2°56.241 7.5 181 18.2 100920 65
2002-05-17 15:10 51°13.527 2°56.239 4.8 190 18.2 100920 65
2002-05-17 15:11 51°13.542 2°56.202 7.2 144 18.2 100910 66
2002-05-17 15:12 51°13.575 2°56.118 7 174 18.2 100910 66
2002-05-17 15:13 51°13.606 2°56.045 10.3 164 18.1 100920 66
2002-05-17 15:14 51°13.629 2°55.988 6.4 170 17.9 100920 67
2002-05-17 15:15 51°13.653 2°55.946 4.3 153 17.8 100910 68
2002-05-17 15:16 51°13.674 2°55.912 5.4 135 17.8 100910 67
2002-05-17 15:17 51°13.682 2°55.896 7.7 152 17.7 100920 67
2002-05-17 15:18 51°13.686 2°55.886 5.4 146 17.6 100910 67
2002-05-17 15:19 51°13.688 2°55.884 7.3 177 17.7 100910 67
2002-05-17 15:20 51°13.687 2°55.886 4 121 17.6 100910 67
2002-05-17 15:21 51°13.688 2°55.887 3.6 144 17.6 100910 68
2002-05-17 15:22 51°13.687 2°55.887 6 160 17.6 100910 67
2002-05-17 15:23 51°13.687 2°55.887 5 129 17.6 100910 67
2002-05-17 15:24 51°13.687 2°55.887 6 116 17.6 100920 67